createdAt,value
2022-08-07T00:00:40.046Z,50.45
2022-08-07T00:03:07.324Z,50.01
2022-08-07T00:05:36.246Z,50.39
2022-08-07T00:08:05.673Z,50.78
2022-08-07T00:10:34.826Z,50.78
2022-08-07T00:13:23.549Z,50.83
2022-08-07T00:15:51.717Z,50.79
2022-08-07T00:18:23.925Z,51.11
2022-08-07T00:20:54.594Z,51.47
2022-08-07T00:23:21.844Z,50.97
2022-08-07T00:25:52.080Z,50.96
2022-08-07T00:28:33.734Z,51.19
2022-08-07T00:31:06.238Z,51.55
2022-08-07T00:33:40.553Z,51.28
2022-08-07T00:36:08.772Z,51.48
2022-08-07T00:38:37.065Z,51.98
2022-08-07T00:41:09.927Z,51.38
2022-08-07T00:44:01.649Z,51.87
2022-08-07T00:46:28.569Z,52.14
2022-08-07T00:48:55.220Z,52.08
2022-08-07T00:51:21.862Z,52.21
2022-08-07T00:53:50.750Z,52.19
2022-08-07T00:56:30.297Z,52.31
2022-08-07T00:59:01.050Z,52.36
2022-08-07T01:01:28.474Z,52.31
2022-08-07T01:04:08.632Z,52.68
2022-08-07T01:06:35.833Z,52.52
2022-08-07T01:09:03.869Z,52.88
2022-08-07T01:12:09.583Z,52.76
2022-08-07T01:14:21.346Z,53.03
2022-08-07T01:16:56.579Z,53.07
2022-08-07T01:19:26.696Z,52.75
2022-08-07T01:21:55.632Z,53.17
2022-08-07T01:24:22.983Z,52.79
2022-08-07T01:26:52.234Z,53.14
2022-08-07T01:29:20.583Z,53.33
2022-08-07T01:31:49.630Z,53.63
2022-08-07T01:34:18.606Z,53.28
2022-08-07T01:36:52.825Z,53.30
2022-08-07T01:39:26.823Z,53.63
2022-08-07T01:42:37.161Z,53.50
2022-08-07T01:44:54.028Z,53.60
2022-08-07T01:48:18.955Z,54.38
2022-08-07T01:50:09.117Z,54.06
2022-08-07T01:52:38.797Z,54.39
2022-08-07T01:55:10.926Z,53.71
2022-08-07T01:58:06.516Z,54.86
2022-08-07T02:00:49.110Z,54.45
2022-08-07T02:03:26.272Z,54.03
2022-08-07T02:06:08.935Z,54.08
2022-08-07T02:08:54.178Z,54.98
2022-08-07T02:11:30.782Z,54.51
2022-08-07T02:14:10.002Z,54.40
2022-08-07T02:16:57.606Z,54.38
2022-08-07T02:20:04.685Z,54.25
2022-08-07T02:22:13.592Z,54.99
2022-08-07T02:24:46.382Z,55.43
2022-08-07T02:27:19.108Z,55.03
2022-08-07T02:29:48.966Z,55.47
2022-08-07T02:32:23.259Z,54.91
2022-08-07T02:34:52.186Z,54.79
2022-08-07T02:37:20.669Z,55.20
2022-08-07T02:40:02.036Z,54.76
2022-08-07T02:42:37.166Z,55.49
2022-08-07T02:45:07.608Z,55.04
2022-08-07T02:47:54.050Z,55.36
2022-08-07T02:50:21.133Z,55.59
2022-08-07T02:53:03.527Z,56.02
2022-08-07T02:56:04.319Z,55.24
2022-08-07T02:58:27.265Z,55.34
2022-08-07T03:00:57.590Z,55.51
2022-08-07T03:03:29.580Z,55.32
2022-08-07T03:06:16.642Z,55.79
2022-08-07T03:08:52.811Z,55.19
2022-08-07T03:11:20.501Z,55.31
2022-08-07T03:13:57.629Z,56.28
2022-08-07T03:16:30.502Z,56.64
2022-08-07T03:18:59.298Z,55.89
2022-08-07T03:21:27.550Z,56.69
2022-08-07T03:24:17.805Z,56.43
2022-08-07T03:26:58.504Z,56.19
2022-08-07T03:29:33.807Z,56.37
2022-08-07T03:32:07.270Z,56.54
2022-08-07T03:34:47.369Z,55.71
2022-08-07T03:37:32.481Z,56.16
2022-08-07T03:40:15.023Z,56.67
2022-08-07T03:42:43.719Z,57.08
2022-08-07T03:45:11.737Z,57.25
2022-08-07T03:47:47.974Z,56.54
2022-08-07T03:50:23.071Z,57.03
2022-08-07T03:52:52.062Z,57.40
2022-08-07T03:55:19.085Z,57.26
2022-08-07T03:58:35.250Z,56.60
2022-08-07T04:00:36.871Z,56.72
2022-08-07T04:03:05.244Z,56.59
2022-08-07T04:05:40.411Z,57.82
2022-08-07T04:08:11.992Z,56.98
2022-08-07T04:10:39.923Z,57.39
2022-08-07T04:13:15.543Z,57.07
2022-08-07T04:15:49.036Z,57.07
2022-08-07T04:18:56.560Z,57.68
2022-08-07T04:21:02.898Z,56.98
2022-08-07T04:23:43.283Z,57.27
2022-08-07T04:26:21.663Z,57.65
2022-08-07T04:28:48.886Z,57.96
2022-08-07T04:31:20.214Z,58.05
2022-08-07T04:33:47.397Z,57.32
2022-08-07T04:36:22.736Z,57.58
2022-08-07T04:38:52.924Z,57.43
2022-08-07T04:41:19.714Z,57.58
2022-08-07T04:44:12.632Z,57.73
2022-08-07T04:58:11.157Z,57.95
2022-08-07T05:00:57.381Z,57.87
2022-08-07T05:06:19.183Z,59.55
2022-08-07T05:11:57.128Z,59.52
2022-08-07T05:14:52.323Z,59.39
2022-08-07T05:17:51.696Z,58.90
2022-08-07T05:20:15.193Z,59.36
2022-08-07T05:22:46.624Z,58.87
2022-08-07T05:25:26.114Z,59.07
2022-08-07T05:28:19.959Z,59.98
2022-08-07T05:30:48.919Z,60.07
2022-08-07T05:33:17.999Z,59.40
2022-08-07T05:35:49.991Z,59.63
2022-08-07T05:38:59.634Z,59.79
2022-08-07T05:41:12.169Z,59.74
2022-08-07T05:44:01.573Z,60.26
2022-08-07T05:46:31.509Z,60.10
2022-08-07T05:48:59.699Z,60.89
2022-08-07T05:51:31.414Z,60.88
2022-08-07T05:54:12.780Z,60.66
2022-08-07T05:56:51.320Z,59.81
2022-08-07T05:59:19.572Z,59.83
2022-08-07T06:01:50.029Z,59.30
2022-08-07T06:04:19.841Z,59.08
2022-08-07T06:06:47.848Z,57.89
2022-08-07T06:10:04.000Z,57.97
2022-08-07T06:12:10.520Z,57.59
2022-08-07T06:14:39.564Z,57.23
2022-08-07T06:17:07.121Z,57.60
2022-08-07T06:19:52.298Z,57.39
2022-08-07T06:22:23.997Z,58.13
2022-08-07T06:24:58.049Z,57.61
2022-08-07T06:27:59.966Z,58.10
2022-08-07T06:30:32.279Z,58.19
2022-08-07T06:33:01.814Z,58.08
2022-08-07T06:35:30.631Z,58.10
2022-08-07T06:38:08.221Z,58.21
2022-08-07T06:40:45.886Z,57.69
2022-08-07T06:43:21.327Z,57.54
2022-08-07T06:45:49.222Z,57.56
2022-08-07T06:48:16.231Z,56.64
2022-08-07T06:50:51.893Z,56.32
2022-08-07T06:55:28.517Z,55.17
2022-08-07T06:56:15.271Z,54.51
2022-08-07T07:00:13.059Z,53.56
2022-08-07T07:01:43.822Z,53.84
2022-08-07T07:04:32.546Z,53.49
2022-08-07T07:07:02.394Z,52.17
2022-08-07T07:09:38.265Z,51.42
2022-08-07T07:15:26.133Z,50.63
2022-08-07T07:18:08.660Z,50.00
2022-08-07T07:20:37.770Z,49.30
2022-08-07T07:24:08.413Z,48.11
2022-08-07T07:26:31.670Z,46.45
2022-08-07T07:29:57.124Z,46.88
2022-08-07T07:31:47.669Z,45.60
2022-08-07T07:34:21.867Z,46.13
2022-08-07T07:36:58.958Z,45.15
2022-08-07T07:39:52.048Z,45.69
2022-08-07T07:42:25.820Z,44.67
2022-08-07T07:45:02.261Z,44.38
2022-08-07T07:47:30.229Z,43.29
2022-08-07T07:50:34.296Z,42.86
2022-08-07T07:53:13.502Z,42.60
2022-08-07T07:55:54.710Z,42.20
2022-08-07T07:58:30.891Z,41.72
2022-08-07T08:02:03.942Z,41.55
2022-08-07T08:04:06.033Z,40.61
2022-08-07T08:06:35.157Z,40.55
2022-08-07T08:09:06.103Z,40.52
2022-08-07T08:11:59.507Z,39.23
2022-08-07T08:14:26.246Z,39.13
2022-08-07T08:16:55.446Z,39.79
2022-08-07T08:20:18.168Z,38.57
2022-08-07T08:22:35.053Z,38.23
2022-08-07T08:25:41.745Z,38.17
2022-08-07T08:28:17.009Z,38.01
2022-08-07T08:30:59.052Z,38.16
2022-08-07T08:33:33.152Z,37.15
2022-08-07T08:36:01.809Z,37.58
2022-08-07T08:38:40.668Z,37.65
2022-08-07T08:49:13.062Z,37.05
2022-08-07T08:52:12.760Z,37.60
2022-08-07T08:54:49.866Z,37.08
2022-08-07T08:57:30.404Z,35.67
2022-08-07T09:00:06.942Z,36.37
2022-08-07T09:02:49.517Z,36.34
2022-08-07T09:11:24.954Z,36.93
2022-08-07T09:14:30.473Z,37.35
2022-08-07T09:19:57.642Z,38.17
2022-08-07T09:25:24.644Z,37.63
2022-08-07T09:31:10.682Z,36.52
2022-08-07T09:36:46.898Z,37.21
2022-08-07T09:42:09.257Z,36.04
2022-08-07T09:47:42.712Z,36.01
2022-08-07T09:53:09.172Z,36.16
2022-08-07T10:02:03.114Z,35.38
2022-08-07T10:10:07.149Z,34.74
2022-08-07T10:13:15.699Z,34.43
2022-08-07T10:16:09.689Z,35.28
2022-08-07T10:24:23.481Z,34.52
2022-08-07T10:30:06.321Z,34.18
2022-08-07T10:33:00.225Z,33.48
2022-08-07T10:35:55.461Z,34.17
2022-08-07T10:41:14.869Z,34.60
2022-08-07T10:44:16.342Z,32.78
2022-08-07T10:46:55.722Z,32.96
2022-08-07T10:52:13.857Z,32.43
2022-08-07T10:54:53.421Z,32.00
2022-08-07T11:00:39.294Z,32.37
2022-08-07T11:03:17.164Z,32.69
2022-08-07T11:08:43.591Z,30.71
2022-08-07T11:14:45.144Z,31.30
2022-08-07T11:16:52.826Z,31.51
2022-08-07T11:19:31.124Z,31.81
2022-08-07T11:25:17.030Z,30.95
2022-08-07T11:30:41.918Z,31.49
2022-08-07T11:33:59.096Z,31.60
2022-08-07T11:36:47.846Z,31.54
2022-08-07T11:42:29.964Z,32.00
2022-08-07T11:48:18.219Z,31.74
2022-08-07T12:10:05.855Z,29.86
2022-08-07T12:12:42.875Z,31.18
2022-08-07T12:15:58.034Z,30.90
2022-08-07T12:18:45.515Z,31.69
2022-08-07T12:22:37.022Z,31.74
2022-08-07T18:02:01.443Z,34.53
2022-08-07T18:12:31.497Z,35.52
2022-08-07T18:15:08.786Z,35.69
2022-08-07T18:18:46.259Z,35.99
2022-08-07T18:21:07.641Z,35.65
2022-08-07T18:35:25.494Z,36.04
2022-08-07T18:43:49.748Z,35.88
2022-08-07T18:46:33.722Z,36.17
2022-08-07T18:50:19.057Z,36.16
2022-08-07T19:00:34.339Z,36.84
2022-08-07T19:03:35.582Z,37.66
2022-08-07T19:06:16.440Z,37.23
2022-08-07T19:09:09.448Z,38.22
2022-08-07T19:12:11.092Z,38.22
2022-08-07T19:15:01.464Z,38.29
2022-08-07T19:18:11.329Z,38.30
2022-08-07T19:30:55.842Z,38.44
2022-08-07T19:32:05.445Z,39.00
2022-08-07T19:34:34.374Z,39.35
2022-08-07T19:37:17.240Z,39.19
2022-08-07T19:39:57.537Z,39.44
2022-08-07T19:42:31.323Z,39.93
2022-08-07T19:45:09.374Z,40.09
2022-08-07T19:47:41.934Z,39.76
2022-08-07T19:50:41.053Z,40.06
2022-08-07T19:53:00.866Z,40.18
2022-08-07T19:55:57.818Z,40.59
2022-08-07T19:58:27.842Z,40.56
2022-08-07T20:00:57.813Z,40.57
2022-08-07T20:03:34.850Z,40.30
2022-08-07T20:06:06.420Z,40.74
2022-08-07T20:08:50.354Z,40.81
2022-08-07T20:11:34.202Z,40.89
2022-08-07T20:14:20.892Z,41.28
2022-08-07T20:16:57.918Z,41.13
2022-08-07T20:19:48.380Z,41.70
2022-08-07T20:22:29.314Z,41.55
2022-08-07T20:25:06.131Z,41.91
2022-08-07T20:27:47.599Z,41.96
2022-08-07T20:30:21.778Z,41.83
2022-08-07T20:32:54.926Z,41.75
2022-08-07T20:35:34.259Z,41.80
2022-08-07T20:38:06.393Z,42.10
2022-08-07T20:40:40.597Z,42.10
2022-08-07T20:43:14.649Z,42.13
2022-08-07T20:46:27.745Z,41.94
2022-08-07T20:48:39.647Z,42.00
2022-08-07T20:51:27.198Z,41.96
2022-08-07T20:54:03.667Z,42.32
2022-08-07T20:56:45.999Z,42.24
2022-08-07T21:00:04.412Z,42.14
2022-08-07T21:02:23.222Z,42.14
2022-08-07T21:04:55.263Z,42.19
2022-08-07T21:07:26.408Z,42.30
2022-08-07T21:10:00.282Z,42.27
2022-08-07T21:12:31.686Z,42.21
2022-08-07T21:15:01.200Z,42.47
2022-08-07T21:18:29.419Z,42.84
2022-08-07T21:20:29.831Z,42.88
2022-08-07T21:23:07.638Z,43.43
2022-08-07T21:28:49.464Z,43.35
2022-08-07T21:34:21.295Z,43.69
2022-08-07T21:37:01.501Z,43.51
2022-08-07T21:50:14.691Z,44.13
2022-08-07T21:53:08.597Z,44.53
2022-08-07T22:01:22.462Z,44.67
2022-08-07T22:04:17.704Z,44.78
2022-08-07T22:07:01.515Z,45.23
2022-08-07T22:09:38.062Z,45.02
2022-08-07T22:12:24.651Z,45.21
2022-08-07T22:15:02.293Z,45.53
2022-08-07T22:17:47.046Z,45.67
2022-08-07T22:20:29.451Z,45.88
2022-08-07T22:23:06.360Z,46.38
2022-08-07T22:25:42.235Z,46.18
2022-08-07T22:28:30.981Z,46.85
2022-08-07T22:31:06.865Z,46.58
2022-08-07T22:33:56.253Z,47.53
2022-08-07T22:37:03.945Z,47.86
2022-08-07T22:40:05.033Z,47.72
2022-08-07T22:42:35.120Z,48.04
2022-08-07T22:45:10.937Z,47.76
2022-08-07T22:54:08.443Z,50.12
2022-08-07T23:07:51.551Z,51.10
2022-08-07T23:16:05.580Z,50.91
2022-08-07T23:19:19.459Z,50.85
